sensor_id;sensor_type;location;lat;lon;timestamp;pressure;altitude;pressure_sealevel;temperature;humidity
79589;BME280;69067;51.930;4.492;2024-03-08T00:01:53;101770.97;;;23.44;32.57
79589;BME280;69067;51.930;4.492;2024-03-08T00:04:19;101765.19;;;23.62;32.71
79589;BME280;69067;51.930;4.492;2024-03-08T00:06:44;101769.22;;;23.51;32.11
79589;BME280;69067;51.930;4.492;2024-03-08T00:09:12;101767.31;;;23.51;32.12
79589;BME280;69067;51.930;4.492;2024-03-08T00:11:38;101764.91;;;23.57;32.88
79589;BME280;69067;51.930;4.492;2024-03-08T00:14:04;101758.22;;;23.59;32.51
79589;BME280;69067;51.930;4.492;2024-03-08T00:16:32;101765.09;;;23.55;32.26
79589;BME280;69067;51.930;4.492;2024-03-08T00:18:59;101760.41;;;23.49;32.41
79589;BME280;69067;51.930;4.492;2024-03-08T00:21:25;101749.53;;;23.49;31.90
79589;BME280;69067;51.930;4.492;2024-03-08T00:23:52;101749.97;;;23.52;32.61
79589;BME280;69067;51.930;4.492;2024-03-08T00:26:21;101749.53;;;23.49;32.67
79589;BME280;69067;51.930;4.492;2024-03-08T00:28:49;101753.41;;;23.46;32.38
79589;BME280;69067;51.930;4.492;2024-03-08T00:31:15;101752.91;;;23.51;32.74
79589;BME280;69067;51.930;4.492;2024-03-08T00:33:43;101741.88;;;23.44;32.55
79589;BME280;69067;51.930;4.492;2024-03-08T00:36:09;101745.81;;;23.42;32.61
79589;BME280;69067;51.930;4.492;2024-03-08T00:38:35;101735.13;;;23.40;32.79
79589;BME280;69067;51.930;4.492;2024-03-08T00:41:00;101736.34;;;23.38;33.20
79589;BME280;69067;51.930;4.492;2024-03-08T00:43:27;101733.25;;;23.41;32.40
79589;BME280;69067;51.930;4.492;2024-03-08T00:45:53;101735.88;;;23.34;32.71
79589;BME280;69067;51.930;4.492;2024-03-08T00:48:18;101731.00;;;23.44;32.77
79589;BME280;69067;51.930;4.492;2024-03-08T00:50:44;101735.50;;;23.37;32.33
79589;BME280;69067;51.930;4.492;2024-03-08T00:53:11;101730.25;;;23.36;33.06
79589;BME280;69067;51.930;4.492;2024-03-08T00:55:37;101720.97;;;23.30;32.51
79589;BME280;69067;51.930;4.492;2024-03-08T00:58:04;101719.50;;;23.42;32.84
79589;BME280;69067;51.930;4.492;2024-03-08T01:00:30;101721.09;;;23.37;32.69
79589;BME280;69067;51.930;4.492;2024-03-08T01:02:56;101726.53;;;23.37;32.52
79589;BME280;69067;51.930;4.492;2024-03-08T01:05:22;101726.13;;;23.40;32.34
79589;BME280;69067;51.930;4.492;2024-03-08T01:07:50;101719.50;;;23.42;32.78
79589;BME280;69067;51.930;4.492;2024-03-08T01:10:16;101710.84;;;23.39;32.55
79589;BME280;69067;51.930;4.492;2024-03-08T01:12:42;101708.13;;;23.39;33.05
79589;BME280;69067;51.930;4.492;2024-03-08T01:15:11;101709.91;;;23.32;32.34
79589;BME280;69067;51.930;4.492;2024-03-08T01:17:37;101701.75;;;23.32;33.03
79589;BME280;69067;51.930;4.492;2024-03-08T01:20:04;101692.56;;;23.33;32.89
79589;BME280;69067;51.930;4.492;2024-03-08T01:22:30;101693.25;;;23.35;32.38
79589;BME280;69067;51.930;4.492;2024-03-08T01:24:56;101684.13;;;23.28;33.25
79589;BME280;69067;51.930;4.492;2024-03-08T01:27:23;101678.53;;;23.29;33.14
79589;BME280;69067;51.930;4.492;2024-03-08T01:29:50;101678.31;;;23.31;32.44
79589;BME280;69067;51.930;4.492;2024-03-08T01:32:16;101678.44;;;23.23;32.94
79589;BME280;69067;51.930;4.492;2024-03-08T01:34:41;101673.34;;;23.20;32.78
79589;BME280;69067;51.930;4.492;2024-03-08T01:37:07;101682.44;;;23.27;33.33
79589;BME280;69067;51.930;4.492;2024-03-08T01:39:33;101675.31;;;23.26;32.83
79589;BME280;69067;51.930;4.492;2024-03-08T01:41:59;101678.03;;;23.26;33.45
79589;BME280;69067;51.930;4.492;2024-03-08T01:44:26;101671.94;;;23.24;32.90
79589;BME280;69067;51.930;4.492;2024-03-08T01:46:53;101669.03;;;23.25;32.52
79589;BME280;69067;51.930;4.492;2024-03-08T01:49:21;101661.81;;;23.17;32.74
79589;BME280;69067;51.930;4.492;2024-03-08T01:51:49;101670.47;;;23.36;32.81
79589;BME280;69067;51.930;4.492;2024-03-08T01:54:17;101657.22;;;23.18;33.01
79589;BME280;69067;51.930;4.492;2024-03-08T01:56:44;101656.38;;;23.17;33.10
79589;BME280;69067;51.930;4.492;2024-03-08T01:59:10;101664.84;;;23.23;32.38
79589;BME280;69067;51.930;4.492;2024-03-08T02:01:36;101663.78;;;23.24;33.21
79589;BME280;69067;51.930;4.492;2024-03-08T02:04:02;101656.22;;;23.34;32.29
79589;BME280;69067;51.930;4.492;2024-03-08T02:06:27;101653.31;;;23.21;33.35
79589;BME280;69067;51.930;4.492;2024-03-08T02:08:54;101650.19;;;23.24;32.33
79589;BME280;69067;51.930;4.492;2024-03-08T02:11:20;101646.66;;;23.23;33.29
79589;BME280;69067;51.930;4.492;2024-03-08T02:13:46;101642.53;;;23.27;33.33
79589;BME280;69067;51.930;4.492;2024-03-08T02:16:12;101635.50;;;23.18;33.77
79589;BME280;69067;51.930;4.492;2024-03-08T02:18:37;101634.09;;;23.22;33.33
79589;BME280;69067;51.930;4.492;2024-03-08T02:21:06;101624.25;;;23.21;33.04
79589;BME280;69067;51.930;4.492;2024-03-08T02:23:33;101625.28;;;23.20;32.59
79589;BME280;69067;51.930;4.492;2024-03-08T02:25:59;101620.69;;;23.21;33.18
79589;BME280;69067;51.930;4.492;2024-03-08T02:28:25;101619.19;;;23.18;33.36
79589;BME280;69067;51.930;4.492;2024-03-08T02:30:52;101611.69;;;23.20;32.90
79589;BME280;69067;51.930;4.492;2024-03-08T02:33:25;101618.34;;;23.17;33.44
79589;BME280;69067;51.930;4.492;2024-03-08T02:35:51;101607.47;;;23.17;33.29
79589;BME280;69067;51.930;4.492;2024-03-08T02:38:19;101611.03;;;23.18;32.98
79589;BME280;69067;51.930;4.492;2024-03-08T02:40:47;101610.41;;;23.16;32.71
79589;BME280;69067;51.930;4.492;2024-03-08T02:43:15;101602.44;;;23.14;32.76
79589;BME280;69067;51.930;4.492;2024-03-08T02:45:42;101600.75;;;23.13;33.01
79589;BME280;69067;51.930;4.492;2024-03-08T02:48:08;101599.72;;;23.14;33.32
79589;BME280;69067;51.930;4.492;2024-03-08T02:50:34;101604.03;;;23.09;33.09
79589;BME280;69067;51.930;4.492;2024-03-08T02:53:00;101590.63;;;23.07;33.06
79589;BME280;69067;51.930;4.492;2024-03-08T02:55:26;101589.03;;;23.13;33.48
79589;BME280;69067;51.930;4.492;2024-03-08T02:57:52;101590.31;;;23.17;33.55
79589;BME280;69067;51.930;4.492;2024-03-08T03:00:20;101586.03;;;23.08;32.85
79589;BME280;69067;51.930;4.492;2024-03-08T03:02:47;101575.00;;;23.09;32.85
79589;BME280;69067;51.930;4.492;2024-03-08T03:05:12;101572.28;;;23.09;33.50
79589;BME280;69067;51.930;4.492;2024-03-08T03:07:39;101573.09;;;23.10;33.33
79589;BME280;69067;51.930;4.492;2024-03-08T03:10:05;101564.22;;;23.16;32.95
79589;BME280;69067;51.930;4.492;2024-03-08T03:12:32;101564.84;;;23.18;32.94
79589;BME280;69067;51.930;4.492;2024-03-08T03:14:59;101553.03;;;23.11;33.15
79589;BME280;69067;51.930;4.492;2024-03-08T03:17:25;101557.63;;;23.10;32.93
79589;BME280;69067;51.930;4.492;2024-03-08T03:19:52;101557.44;;;23.12;32.51
79589;BME280;69067;51.930;4.492;2024-03-08T03:22:19;101539.00;;;23.07;32.61
79589;BME280;69067;51.930;4.492;2024-03-08T03:24:45;101558.03;;;23.07;33.42
79589;BME280;69067;51.930;4.492;2024-03-08T03:27:14;101542.38;;;23.09;33.16
79589;BME280;69067;51.930;4.492;2024-03-08T03:29:41;101546.50;;;23.05;32.79
79589;BME280;69067;51.930;4.492;2024-03-08T03:32:11;101549.88;;;23.07;33.18
79589;BME280;69067;51.930;4.492;2024-03-08T03:34:38;101537.13;;;23.08;32.88
79589;BME280;69067;51.930;4.492;2024-03-08T03:37:05;101545.19;;;23.16;33.59
79589;BME280;69067;51.930;4.492;2024-03-08T03:39:34;101545.91;;;23.10;33.36
79589;BME280;69067;51.930;4.492;2024-03-08T03:42:00;101537.03;;;23.01;33.12
79589;BME280;69067;51.930;4.492;2024-03-08T03:44:28;101542.00;;;23.12;32.97
79589;BME280;69067;51.930;4.492;2024-03-08T03:46:54;101540.03;;;23.06;32.96
79589;BME280;69067;51.930;4.492;2024-03-08T03:49:20;101535.44;;;23.07;33.38
79589;BME280;69067;51.930;4.492;2024-03-08T03:51:46;101537.41;;;23.13;33.02
79589;BME280;69067;51.930;4.492;2024-03-08T03:54:12;101531.03;;;23.06;33.28
79589;BME280;69067;51.930;4.492;2024-03-08T03:56:38;101538.25;;;22.99;33.89
79589;BME280;69067;51.930;4.492;2024-03-08T03:59:06;101526.19;;;23.01;33.74
79589;BME280;69067;51.930;4.492;2024-03-08T04:01:33;101533.66;;;22.99;33.37
79589;BME280;69067;51.930;4.492;2024-03-08T04:03:59;101519.91;;;23.01;33.41
79589;BME280;69067;51.930;4.492;2024-03-08T04:06:25;101520.09;;;22.99;33.54
79589;BME280;69067;51.930;4.492;2024-03-08T04:08:51;101524.09;;;23.03;33.14
79589;BME280;69067;51.930;4.492;2024-03-08T04:11:16;101512.88;;;23.06;33.14
79589;BME280;69067;51.930;4.492;2024-03-08T04:13:43;101505.75;;;23.05;32.87
79589;BME280;69067;51.930;4.492;2024-03-08T04:16:08;101507.53;;;23.13;33.12
79589;BME280;69067;51.930;4.492;2024-03-08T04:18:36;101502.84;;;23.07;33.19
79589;BME280;69067;51.930;4.492;2024-03-08T04:21:06;101504.44;;;23.01;33.26
79589;BME280;69067;51.930;4.492;2024-03-08T04:23:33;101500.72;;;23.02;33.12
79589;BME280;69067;51.930;4.492;2024-03-08T04:26:02;101500.81;;;22.94;33.32
79589;BME280;69067;51.930;4.492;2024-03-08T04:28:30;101500.31;;;22.91;33.10
79589;BME280;69067;51.930;4.492;2024-03-08T04:30:56;101496.00;;;22.96;32.86
79589;BME280;69067;51.930;4.492;2024-03-08T04:33:22;101496.00;;;22.96;33.87
79589;BME280;69067;51.930;4.492;2024-03-08T04:35:49;101505.56;;;22.92;33.71
79589;BME280;69067;51.930;4.492;2024-03-08T04:38:14;101503.78;;;22.99;32.94
79589;BME280;69067;51.930;4.492;2024-03-08T04:40:41;101509.78;;;22.95;33.91
79589;BME280;69067;51.930;4.492;2024-03-08T04:43:07;101514.00;;;22.97;34.23
79589;BME280;69067;51.930;4.492;2024-03-08T04:45:34;101499.78;;;22.95;33.82
79589;BME280;69067;51.930;4.492;2024-03-08T04:48:00;101493.88;;;22.92;33.36
79589;BME280;69067;51.930;4.492;2024-03-08T04:50:25;101494.03;;;22.90;33.47
79589;BME280;69067;51.930;4.492;2024-03-08T04:52:55;101487.31;;;23.01;33.96
79589;BME280;69067;51.930;4.492;2024-03-08T04:55:21;101488.50;;;22.98;33.79
79589;BME280;69067;51.930;4.492;2024-03-08T04:57:49;101475.97;;;22.83;33.50
79589;BME280;69067;51.930;4.492;2024-03-08T05:00:16;101482.63;;;22.95;33.51
79589;BME280;69067;51.930;4.492;2024-03-08T05:02:41;101487.97;;;22.88;33.56
79589;BME280;69067;51.930;4.492;2024-03-08T05:05:08;101478.84;;;22.96;34.02
79589;BME280;69067;51.930;4.492;2024-03-08T05:07:37;101473.91;;;22.99;32.65
79589;BME280;69067;51.930;4.492;2024-03-08T05:10:03;101467.91;;;22.89;32.92
79589;BME280;69067;51.930;4.492;2024-03-08T05:12:29;101474.28;;;22.96;33.77
79589;BME280;69067;51.930;4.492;2024-03-08T05:14:55;101474.28;;;22.96;33.87
79589;BME280;69067;51.930;4.492;2024-03-08T05:17:22;101470.84;;;22.88;34.14
79589;BME280;69067;51.930;4.492;2024-03-08T05:19:49;101478.41;;;22.92;32.90
79589;BME280;69067;51.930;4.492;2024-03-08T05:22:17;101464.09;;;22.84;34.23
79589;BME280;69067;51.930;4.492;2024-03-08T05:24:44;101472.41;;;22.82;33.61
79589;BME280;69067;51.930;4.492;2024-03-08T05:27:10;101466.16;;;22.82;33.79
79589;BME280;69067;51.930;4.492;2024-03-08T05:29:36;101462.19;;;22.99;33.92
79589;BME280;69067;51.930;4.492;2024-03-08T05:32:03;101462.03;;;22.86;33.69
79589;BME280;69067;51.930;4.492;2024-03-08T05:34:29;101454.06;;;22.84;33.53
79589;BME280;69067;51.930;4.492;2024-03-08T05:36:56;101468.88;;;22.82;33.27
79589;BME280;69067;51.930;4.492;2024-03-08T05:39:23;101460.81;;;22.88;33.96
79589;BME280;69067;51.930;4.492;2024-03-08T05:41:49;101468.88;;;22.82;34.10
79589;BME280;69067;51.930;4.492;2024-03-08T05:44:16;101453.22;;;22.84;33.26
79589;BME280;69067;51.930;4.492;2024-03-08T05:46:45;101453.03;;;22.85;33.34
79589;BME280;69067;51.930;4.492;2024-03-08T05:49:12;101456.41;;;22.87;33.54
79589;BME280;69067;51.930;4.492;2024-03-08T05:51:40;101452.09;;;22.93;33.85
79589;BME280;69067;51.930;4.492;2024-03-08T05:54:08;101450.69;;;22.82;33.85
79589;BME280;69067;51.930;4.492;2024-03-08T05:56:38;101452.00;;;22.86;34.15
79589;BME280;69067;51.930;4.492;2024-03-08T05:59:07;101441.72;;;22.82;33.66
79589;BME280;69067;51.930;4.492;2024-03-08T06:01:33;101444.22;;;22.83;33.81
79589;BME280;69067;51.930;4.492;2024-03-08T06:04:03;101449.97;;;22.88;33.78
79589;BME280;69067;51.930;4.492;2024-03-08T06:06:29;101448.72;;;22.91;32.94
79589;BME280;69067;51.930;4.492;2024-03-08T06:08:55;101443.19;;;22.84;33.80
79589;BME280;69067;51.930;4.492;2024-03-08T06:11:25;101445.75;;;22.86;33.20
79589;BME280;69067;51.930;4.492;2024-03-08T06:13:55;101437.50;;;22.79;33.76
79589;BME280;69067;51.930;4.492;2024-03-08T06:16:26;101440.09;;;22.72;33.69
79589;BME280;69067;51.930;4.492;2024-03-08T06:18:57;101431.47;;;22.69;33.77
79589;BME280;69067;51.930;4.492;2024-03-08T06:21:23;101434.66;;;22.72;33.68
79589;BME280;69067;51.930;4.492;2024-03-08T06:23:53;101434.84;;;22.56;34.32
79589;BME280;69067;51.930;4.492;2024-03-08T06:26:21;101430.34;;;22.49;33.69
79589;BME280;69067;51.930;4.492;2024-03-08T06:28:48;101423.91;;;22.50;34.20
79589;BME280;69067;51.930;4.492;2024-03-08T06:31:14;101431.69;;;22.53;34.41
79589;BME280;69067;51.930;4.492;2024-03-08T06:33:40;101428.22;;;22.59;34.16
79589;BME280;69067;51.930;4.492;2024-03-08T06:36:06;101424.38;;;22.53;34.12
79589;BME280;69067;51.930;4.492;2024-03-08T06:38:32;101408.47;;;22.50;33.56
79589;BME280;69067;51.930;4.492;2024-03-08T06:40:58;101422.50;;;22.54;34.08
79589;BME280;69067;51.930;4.492;2024-03-08T06:43:23;101410.59;;;22.55;34.27
79589;BME280;69067;51.930;4.492;2024-03-08T06:45:55;101405.25;;;22.61;34.12
79589;BME280;69067;51.930;4.492;2024-03-08T06:48:21;101407.88;;;22.55;33.85
79589;BME280;69067;51.930;4.492;2024-03-08T06:50:47;101404.44;;;22.61;33.99
79589;BME280;69067;51.930;4.492;2024-03-08T06:53:13;101394.81;;;22.58;33.92
79589;BME280;69067;51.930;4.492;2024-03-08T06:55:39;101403.69;;;22.67;34.13
79589;BME280;69067;51.930;4.492;2024-03-08T06:58:05;101401.25;;;22.72;33.78
79589;BME280;69067;51.930;4.492;2024-03-08T07:00:34;101398.34;;;22.59;34.28
79589;BME280;69067;51.930;4.492;2024-03-08T07:03:01;101396.19;;;22.54;33.86
79589;BME280;69067;51.930;4.492;2024-03-08T07:05:28;101405.56;;;22.52;34.06
79589;BME280;69067;51.930;4.492;2024-03-08T07:07:54;101404.81;;;22.58;34.33
79589;BME280;69067;51.930;4.492;2024-03-08T07:10:21;101393.97;;;22.58;33.97
79589;BME280;69067;51.930;4.492;2024-03-08T07:12:52;101402.19;;;22.50;34.09
79589;BME280;69067;51.930;4.492;2024-03-08T07:15:18;101396.50;;;22.59;33.78
79589;BME280;69067;51.930;4.492;2024-03-08T07:17:46;101400.59;;;22.55;33.57
79589;BME280;69067;51.930;4.492;2024-03-08T07:20:13;101400.59;;;22.55;34.52
79589;BME280;69067;51.930;4.492;2024-03-08T07:22:41;101399.28;;;22.51;34.11
79589;BME280;69067;51.930;4.492;2024-03-08T07:25:07;101395.72;;;22.65;33.63
79589;BME280;69067;51.930;4.492;2024-03-08T07:27:34;101395.91;;;22.64;33.98
79589;BME280;69067;51.930;4.492;2024-03-08T07:30:02;101386.09;;;22.63;33.63
79589;BME280;69067;51.930;4.492;2024-03-08T07:32:28;101391.81;;;22.53;34.28
79589;BME280;69067;51.930;4.492;2024-03-08T07:34:56;101390.22;;;22.59;33.62
79589;BME280;69067;51.930;4.492;2024-03-08T07:37:21;101383.09;;;22.58;34.92
79589;BME280;69067;51.930;4.492;2024-03-08T07:39:47;101381.91;;;22.46;34.02
79589;BME280;69067;51.930;4.492;2024-03-08T07:42:13;101377.50;;;22.59;34.12
79589;BME280;69067;51.930;4.492;2024-03-08T07:44:38;101383.47;;;22.55;34.88
79589;BME280;69067;51.930;4.492;2024-03-08T07:47:05;101378.03;;;22.55;34.86
79589;BME280;69067;51.930;4.492;2024-03-08T07:49:37;101383.47;;;22.55;34.97
79589;BME280;69067;51.930;4.492;2024-03-08T07:52:04;101371.22;;;22.59;34.57
79589;BME280;69067;51.930;4.492;2024-03-08T07:54:30;101373.84;;;22.67;34.04
79589;BME280;69067;51.930;4.492;2024-03-08T07:56:56;101370.19;;;22.60;34.84
79589;BME280;69067;51.930;4.492;2024-03-08T07:59:22;101374.84;;;22.66;34.66
79589;BME280;69067;51.930;4.492;2024-03-08T08:01:48;101375.22;;;22.63;35.13
79589;BME280;69067;51.930;4.492;2024-03-08T08:04:13;101377.94;;;22.63;34.61
79589;BME280;69067;51.930;4.492;2024-03-08T08:06:40;101363.59;;;22.69;34.04
79589;BME280;69067;51.930;4.492;2024-03-08T08:09:08;101365.09;;;22.71;34.86
79589;BME280;69067;51.930;4.492;2024-03-08T08:11:41;101365.09;;;22.71;34.87
79589;BME280;69067;51.930;4.492;2024-03-08T08:14:09;101363.25;;;22.72;35.18
79589;BME280;69067;51.930;4.492;2024-03-08T08:16:36;101355.69;;;22.67;34.71
79589;BME280;69067;51.930;4.492;2024-03-08T08:19:03;101355.59;;;22.61;34.70
79589;BME280;69067;51.930;4.492;2024-03-08T08:21:36;101348.84;;;22.57;35.44
79589;BME280;69067;51.930;4.492;2024-03-08T08:24:05;101358.84;;;22.56;35.85
79589;BME280;69067;51.930;4.492;2024-03-08T08:26:31;101342.50;;;22.35;36.10
79589;BME280;69067;51.930;4.492;2024-03-08T08:29:01;101351.94;;;22.54;35.78
79589;BME280;69067;51.930;4.492;2024-03-08T08:31:27;101340.25;;;22.38;36.23
79589;BME280;69067;51.930;4.492;2024-03-08T08:33:53;101337.06;;;22.50;35.33
79589;BME280;69067;51.930;4.492;2024-03-08T08:36:26;101340.25;;;22.38;36.16
79589;BME280;69067;51.930;4.492;2024-03-08T08:38:55;101329.50;;;22.45;36.47
79589;BME280;69067;51.930;4.492;2024-03-08T08:41:23;101327.81;;;22.44;36.48
79589;BME280;69067;51.930;4.492;2024-03-08T08:43:48;101321.25;;;22.53;36.77
79589;BME280;69067;51.930;4.492;2024-03-08T08:46:18;101323.13;;;22.53;36.83
79589;BME280;69067;51.930;4.492;2024-03-08T08:48:44;101323.50;;;22.50;37.31
79589;BME280;69067;51.930;4.492;2024-03-08T08:51:13;101323.88;;;22.47;37.08
79589;BME280;69067;51.930;4.492;2024-03-08T08:53:39;101322.38;;;22.44;36.78
79589;BME280;69067;51.930;4.492;2024-03-08T08:56:09;101323.88;;;22.47;36.97
79589;BME280;69067;51.930;4.492;2024-03-08T08:58:42;101326.19;;;22.50;35.95
79589;BME280;69067;51.930;4.492;2024-03-08T09:01:08;101314.50;;;22.49;36.07
79589;BME280;69067;51.930;4.492;2024-03-08T09:03:36;101313.22;;;22.45;35.41
79589;BME280;69067;51.930;4.492;2024-03-08T09:06:05;101301.78;;;22.50;35.52
79589;BME280;69067;51.930;4.492;2024-03-08T09:08:37;101303.81;;;22.48;35.41
79589;BME280;69067;51.930;4.492;2024-03-08T09:11:06;101297.66;;;22.54;34.67
79589;BME280;69067;51.930;4.492;2024-03-08T09:13:32;101307.09;;;22.58;34.55
79589;BME280;69067;51.930;4.492;2024-03-08T09:16:02;101295.75;;;22.54;34.64
79589;BME280;69067;51.930;4.492;2024-03-08T09:18:31;101297.28;;;22.57;35.01
79589;BME280;69067;51.930;4.492;2024-03-08T09:20:58;101289.38;;;22.62;34.91
79589;BME280;69067;51.930;4.492;2024-03-08T09:23:25;101283.13;;;22.61;34.47
79589;BME280;69067;51.930;4.492;2024-03-08T09:25:58;101281.47;;;22.60;34.36
79589;BME280;69067;51.930;4.492;2024-03-08T09:28:24;101280.69;;;22.66;34.61
79589;BME280;69067;51.930;4.492;2024-03-08T09:30:50;101277.13;;;22.66;34.61
79589;BME280;69067;51.930;4.492;2024-03-08T09:33:16;101267.88;;;22.60;34.57
79589;BME280;69067;51.930;4.492;2024-03-08T09:35:45;101262.72;;;22.65;33.82
79589;BME280;69067;51.930;4.492;2024-03-08T09:38:12;101258.13;;;22.66;34.20
79589;BME280;69067;51.930;4.492;2024-03-08T09:40:41;101250.66;;;22.68;33.69
79589;BME280;69067;51.930;4.492;2024-03-08T09:43:07;101238.72;;;22.69;34.64
79589;BME280;69067;51.930;4.492;2024-03-08T09:45:36;101234.13;;;22.69;33.71
79589;BME280;69067;51.930;4.492;2024-03-08T09:48:10;101229.97;;;22.67;34.07
79589;BME280;69067;51.930;4.492;2024-03-08T09:50:40;101223.28;;;22.69;33.90
79589;BME280;69067;51.930;4.492;2024-03-08T09:53:08;101223.72;;;22.88;33.20
79589;BME280;69067;51.930;4.492;2024-03-08T09:55:38;101220.03;;;22.74;33.84
79589;BME280;69067;51.930;4.492;2024-03-08T09:58:11;101217.38;;;22.81;33.90
79589;BME280;69067;51.930;4.492;2024-03-08T10:00:56;101202.69;;;22.75;33.44
79589;BME280;69067;51.930;4.492;2024-03-08T10:03:27;101191.81;;;22.75;32.91
79589;BME280;69067;51.930;4.492;2024-03-08T10:05:53;101187.72;;;22.79;33.60
79589;BME280;69067;51.930;4.492;2024-03-08T10:08:28;101175.34;;;22.76;33.04
79589;BME280;69067;51.930;4.492;2024-03-08T10:10:57;101181.69;;;22.84;33.33
79589;BME280;69067;51.930;4.492;2024-03-08T10:13:25;101174.50;;;22.76;33.38
79589;BME280;69067;51.930;4.492;2024-03-08T10:15:54;101176.84;;;22.79;33.05
79589;BME280;69067;51.930;4.492;2024-03-08T10:18:21;101170.38;;;22.80;33.42
79589;BME280;69067;51.930;4.492;2024-03-08T10:21:02;101155.97;;;22.80;32.86
79589;BME280;69067;51.930;4.492;2024-03-08T10:23:32;101151.38;;;22.80;33.73
79589;BME280;69067;51.930;4.492;2024-03-08T10:26:15;101146.97;;;22.79;32.85
79589;BME280;69067;51.930;4.492;2024-03-08T10:28:44;101144.09;;;22.81;32.96
79589;BME280;69067;51.930;4.492;2024-03-08T10:31:11;101140.75;;;22.85;32.42
79589;BME280;69067;51.930;4.492;2024-03-08T10:33:37;101138.25;;;22.84;33.38
79589;BME280;69067;51.930;4.492;2024-03-08T10:36:10;101117.34;;;22.84;32.63
79589;BME280;69067;51.930;4.492;2024-03-08T10:38:38;101126.16;;;22.86;33.48
79589;BME280;69067;51.930;4.492;2024-03-08T10:41:10;101121.38;;;22.88;33.27
79589;BME280;69067;51.930;4.492;2024-03-08T10:44:10;101114.88;;;22.89;32.27
79589;BME280;69067;51.930;4.492;2024-03-08T10:46:58;101106.50;;;22.84;33.31
79589;BME280;69067;51.930;4.492;2024-03-08T10:49:31;101097.78;;;22.89;33.54
79589;BME280;69067;51.930;4.492;2024-03-08T10:52:04;101106.34;;;22.92;32.72
79589;BME280;69067;51.930;4.492;2024-03-08T10:54:34;101097.31;;;22.85;32.85
79589;BME280;69067;51.930;4.492;2024-03-08T10:57:05;101086.66;;;22.84;33.12
79589;BME280;69067;51.930;4.492;2024-03-08T10:59:32;101082.72;;;22.86;32.85
79589;BME280;69067;51.930;4.492;2024-03-08T11:02:00;101083.38;;;22.88;32.46
79589;BME280;69067;51.930;4.492;2024-03-08T11:04:25;101080.25;;;22.91;32.04
79589;BME280;69067;51.930;4.492;2024-03-08T11:06:52;101070.16;;;22.85;32.17
79589;BME280;69067;51.930;4.492;2024-03-08T11:09:31;101062.88;;;22.86;32.01
79589;BME280;69067;51.930;4.492;2024-03-08T11:12:29;101062.25;;;22.90;32.06
79589;BME280;69067;51.930;4.492;2024-03-08T11:14:56;101055.78;;;22.91;32.53
79589;BME280;69067;51.930;4.492;2024-03-08T11:17:49;101060.56;;;22.89;32.14
79589;BME280;69067;51.930;4.492;2024-03-08T11:20:18;101037.59;;;22.85;32.29
79589;BME280;69067;51.930;4.492;2024-03-08T11:22:53;101042.63;;;22.88;31.91
79589;BME280;69067;51.930;4.492;2024-03-08T11:25:37;101037.59;;;22.85;32.42
79589;BME280;69067;51.930;4.492;2024-03-08T11:28:21;101038.44;;;22.86;32.62
79589;BME280;69067;51.930;4.492;2024-03-08T11:33:30;101025.88;;;22.85;32.13
79589;BME280;69067;51.930;4.492;2024-03-08T11:36:23;101028.63;;;22.91;32.08
79589;BME280;69067;51.930;4.492;2024-03-08T11:38:51;101018.81;;;22.90;31.56
79589;BME280;69067;51.930;4.492;2024-03-08T11:41:23;101013.84;;;22.94;31.80
79589;BME280;69067;51.930;4.492;2024-03-08T11:44:01;101015.47;;;22.88;31.96
79589;BME280;69067;51.930;4.492;2024-03-08T11:46:30;101013.38;;;22.90;32.53
79589;BME280;69067;51.930;4.492;2024-03-08T11:48:56;101005.47;;;22.89;31.39
79589;BME280;69067;51.930;4.492;2024-03-08T11:51:22;101001.47;;;22.91;31.71
79589;BME280;69067;51.930;4.492;2024-03-08T11:53:52;101000.94;;;23.02;31.47
79589;BME280;69067;51.930;4.492;2024-03-08T11:56:18;101001.28;;;22.93;32.13
79589;BME280;69067;51.930;4.492;2024-03-08T11:58:55;100999.59;;;22.92;31.98
79589;BME280;69067;51.930;4.492;2024-03-08T12:01:23;100986.22;;;22.90;32.44
79589;BME280;69067;51.930;4.492;2024-03-08T12:03:53;100990.00;;;22.96;32.63
79589;BME280;69067;51.930;4.492;2024-03-08T12:06:27;100981.44;;;22.92;31.95
79589;BME280;69067;51.930;4.492;2024-03-08T12:09:07;100977.50;;;22.95;32.46
79589;BME280;69067;51.930;4.492;2024-03-08T12:11:37;100976.25;;;22.97;32.02
79589;BME280;69067;51.930;4.492;2024-03-08T12:14:03;100971.00;;;22.96;31.56
79589;BME280;69067;51.930;4.492;2024-03-08T12:16:29;100967.47;;;22.95;32.12
79589;BME280;69067;51.930;4.492;2024-03-08T12:18:55;100967.47;;;22.95;31.64
79589;BME280;69067;51.930;4.492;2024-03-08T12:21:21;100960.97;;;22.96;32.30
79589;BME280;69067;51.930;4.492;2024-03-08T12:26:39;100957.88;;;22.99;31.75
79589;BME280;69067;51.930;4.492;2024-03-08T12:29:24;100948.03;;;22.98;32.17
79589;BME280;69067;51.930;4.492;2024-03-08T12:31:52;100940.94;;;22.97;32.34
79589;BME280;69067;51.930;4.492;2024-03-08T12:34:24;100927.16;;;22.99;32.42
79589;BME280;69067;51.930;4.492;2024-03-08T12:36:51;100937.81;;;22.94;31.60
79589;BME280;69067;51.930;4.492;2024-03-08T12:39:21;100931.75;;;22.98;32.04
79589;BME280;69067;51.930;4.492;2024-03-08T12:41:56;100932.78;;;22.97;31.50
79589;BME280;69067;51.930;4.492;2024-03-08T12:44:27;100927.78;;;22.94;32.66
79589;BME280;69067;51.930;4.492;2024-03-08T12:46:54;100920.88;;;22.92;32.57
79589;BME280;69067;51.930;4.492;2024-03-08T12:49:20;100903.50;;;22.86;32.70
79589;BME280;69067;51.930;4.492;2024-03-08T12:51:49;100906.91;;;22.95;32.80
79589;BME280;69067;51.930;4.492;2024-03-08T12:54:14;100900.78;;;22.86;32.50
79589;BME280;69067;51.930;4.492;2024-03-08T12:56:40;100900.78;;;22.86;32.46
79589;BME280;69067;51.930;4.492;2024-03-08T12:59:07;100915.47;;;22.98;32.30
79589;BME280;69067;51.930;4.492;2024-03-08T13:01:34;100889.31;;;22.91;32.21